FW1606 Weather Reports


Display with metric or nautical units.
time (UTC)temp
F
wind
direction
speed
MPH
gust
MPH
rain 1hr
in
rain 24hr
in
rain mn
in
humidity
%
barometer
mb
20210924003522 76 303 2.0 8.0 0.00 0.00 0.00 29 1020.9
20210924002523 77 319 1.0 2.0 0.00 0.00 0.00 28 1020.7
20210924001525 78 333 1.0 2.0 0.00 0.00 0.00 27 1020.7
20210924000525 78 321 2.0 6.0 0.00 0.00 0.00 26 1020.6
20210923235526 79 304 1.0 3.0 0.00 0.00 0.00 25 1020.7
20210923234529 78 347 1.0 6.0 0.00 0.00 0.00 26 1020.6
20210923233530 78 337 2.0 6.0 0.00 0.00 0.00 25 1020.6
20210923232530 79 330 2.0 6.0 0.00 0.00 0.00 25 1020.6
20210923231531 79 345 1.0 4.0 0.00 0.00 0.00 25 1020.6
20210923230531 78 331 3.0 8.0 0.00 0.00 0.00 25 1020.6
20210923225515 79 353 2.0 6.0 0.00 0.00 0.00 25 1020.7
20210923224516 79 316 2.0 6.0 0.00 0.00 0.00 25 1020.6
20210923223517 79 337 1.0 4.0 0.00 0.00 0.00 27 1020.4
20210923222516 78 351 2.0 6.0 0.00 0.00 0.00 27 1020.5
20210923221517 79 327 2.0 6.0 0.00 0.00 0.00 27 1020.5
20210923220531 79 316 2.0 7.0 0.00 0.00 0.00 27 1020.6
20210923215531 79 307 3.0 7.0 0.00 0.00 0.00 27 1020.6
20210923214531 77 11 3.0 8.0 0.00 0.00 0.00 29 1020.6
20210923213519 77 6 3.0 8.0 0.00 0.00 0.00 29 1020.6
20210923212516 78 313 2.0 7.0 0.00 0.00 0.00 28 1020.6
20210923211519 78 293 2.0 4.0 0.00 0.00 0.00 29 1020.7
20210923210521 77 301 2.0 4.0 0.00 0.00 0.00 28 1020.8
20210923205522 77 280 2.0 6.0 0.00 0.00 0.00 29 1020.9
20210923204523 77 288 3.0 8.0 0.00 0.00 0.00 29 1021.0
20210923203525 78 278 3.0 6.0 0.00 0.00 0.00 28 1021.1
20210923202524 76 291 3.0 7.0 0.00 0.00 0.00 29 1021.3
20210923201526 77 302 2.0 7.0 0.00 0.00 0.00 29 1021.2
20210923200526 77 307 3.0 6.0 0.00 0.00 0.00 29 1021.4
20210923195527 76 349 3.0 6.0 0.00 0.00 0.00 31 1021.5
20210923194527 76 314 2.0 4.0 0.00 0.00 0.00 31 1021.5
20210923193526 75 295 2.0 3.0 0.00 0.00 0.00 32 1021.5
20210923192526 75 266 3.0 8.0 0.00 0.00 0.00 32 1021.5
20210923191528 75 287 3.0 7.0 0.00 0.00 0.00 33 1021.7
20210923190530 74 276 4.0 10.0 0.00 0.00 0.00 32 1021.8
20210923185517 74 273 2.0 6.0 0.00 0.00 0.00 34 1021.8
20210923184531 74 299 3.0 7.0 0.00 0.00 0.00 33 1022.1
20210923183531 73 257 3.0 6.0 0.00 0.00 0.00 33 1022.0
20210923182531 73 265 2.0 7.0 0.00 0.00 0.00 34 1022.1
20210923181531 73 274 2.0 6.0 0.00 0.00 0.00 34 1022.2
20210923180516 72 262 2.0 6.0 0.00 0.00 0.00 34 1022.2
20210923175517 71 295 2.0 4.0 0.00 0.00 0.00 36 1022.3
20210923174517 70 276 2.0 4.0 0.00 0.00 0.00 37 1022.4
20210923173521 70 285 3.0 7.0 0.00 0.00 0.00 38 1022.6
20210923172521 68 315 2.0 4.0 0.00 0.00 0.00 40 1022.6
20210923171524 70 305 3.0 8.0 0.00 0.00 0.00 39 1022.7
20210923170527 70 271 2.0 4.0 0.00 0.00 0.00 38 1022.7
20210923165528 70 282 3.0 7.0 0.00 0.00 0.00 38 1022.6
20210923164528 69 258 6.0 10.0 0.00 0.00 0.00 36 1022.5
20210923163530 67 272 5.0 10.0 0.00 0.00 0.00 39 1022.4
20210923162517 65 275 6.0 11.0 0.00 0.00 0.00 47 1022.3
20210923161520 65 247 2.0 4.0 0.00 0.00 0.00 43 1022.1
20210923160520 64 193 1.0 3.0 0.00 0.00 0.00 41 1022.0
20210923155521 64 121 1.0 3.0 0.00 0.00 0.00 41 1021.9
20210923154520 64 145 2.0 4.0 0.00 0.00 0.00 43 1021.6
20210923153521 62 117 2.0 6.0 0.00 0.00 0.00 49 1021.6
20210923152520 59 126 3.0 6.0 0.00 0.00 0.00 54 1021.8
20210923151523 59 108 2.0 4.0 0.00 0.00 0.00 52 1022.0
20210923150525 58 141 1.0 3.0 0.00 0.00 0.00 50 1021.9
20210923145525 58 124 2.0 7.0 0.00 0.00 0.00 52 1021.8
20210923144525 55 124 2.0 8.0 0.00 0.00 0.00 54 1021.8
20210923143528 54 64 2.0 3.0 0.00 0.00 0.00 56 1022.2
20210923142521 50 73 1.0 4.0 0.00 0.00 0.00 63 1022.2
20210923141524 49 123 2.0 4.0 0.00 0.00 0.00 66 1021.7
20210923140528 50 103 1.0 4.0 0.00 0.00 0.00 65 1021.7
20210923135527 51 139 1.0 2.0 0.00 0.00 0.00 62 1021.3
20210923134528 49 254 0.0 2.0 0.00 0.00 0.00 64 1021.4
20210923133531 48 175 1.0 2.0 0.00 0.00 0.00 66 1021.4
20210923132530 48 163 1.0 2.0 0.00 0.00 0.00 67 1021.3
20210923131515 48 252 2.0 3.0 0.00 0.00 0.00 69 1021.3
20210923130518 49 339 0.0 2.0 0.00 0.00 0.00 68 1020.9
20210923125517 49 148 1.0 2.0 0.00 0.00 0.00 69 1020.8
20210923124516 49 110 0.0 1.0 0.00 0.00 0.00 70 1020.6
20210923123517 49 16 1.0 2.0 0.00 0.00 0.00 69 1020.6
20210923122517 50 115 0.0 1.0 0.00 0.00 0.00 67 1020.4
20210923121516 51 80 0.0 0.0 0.00 0.00 0.00 63 1020.3
20210923120517 52 95 0.0 1.0 0.00 0.00 0.00 58 1020.3
20210923115518 52 123 0.0 1.0 0.00 0.00 0.00 57 1020.4
20210923114519 52 351 1.0 1.0 0.00 0.00 0.00 57 1020.2
20210923113520 50 245 0.0 1.0 0.00 0.00 0.00 63 1020.3
20210923112521 48 21 0.0 1.0 0.00 0.00 0.00 69 1020.4
20210923111520 48 302 1.0 3.0 0.00 0.00 0.00 70 1020.4
20210923110521 48 290 2.0 4.0 0.00 0.00 0.00 70 1020.3
20210923105521 49 69 0.0 0.0 0.00 0.00 0.00 69 1020.1
20210923104524 49 113 0.0 0.0 0.00 0.00 0.00 69 1020.0
20210923103525 49 128 0.0 1.0 0.00 0.00 0.00 68 1020.0
20210923102525 51 125 1.0 4.0 0.00 0.00 0.00 62 1020.2
20210923101527 52 126 0.0 2.0 0.00 0.00 0.00 61 1020.1
20210923100528 52 15 1.0 3.0 0.00 0.00 0.00 59 1020.3
20210923095529 53 9 2.0 6.0 0.00 0.00 0.00 55 1020.4
20210923094530 53 351 2.0 6.0 0.00 0.00 0.00 55 1020.5
20210923093531 52 11 3.0 7.0 0.00 0.00 0.00 57 1020.7
20210923092531 49 12 1.0 2.0 0.00 0.00 0.00 64 1020.6
20210923091530 49 319 0.0 1.0 0.00 0.00 0.00 67 1020.4
20210923090530 50 300 0.0 2.0 0.00 0.00 0.00 68 1020.2
20210923085530 50 317 0.0 1.0 0.00 0.00 0.00 66 1020.1
20210923084529 50 88 0.0 1.0 0.00 0.00 0.00 67 1020.1
20210923083516 50 315 1.0 2.0 0.00 0.00 0.00 66 1020.1
20210923082516 51 144 0.0 1.0 0.00 0.00 0.00 66 1019.9
20210923081521 51 143 0.0 0.0 0.00 0.00 0.00 66 1020.0
20210923080519 50 297 0.0 1.0 0.00 0.00 0.00 67 1020.0
20210923075517 50 289 0.0 1.0 0.00 0.00 0.00 68 1019.9
20210923074518 50 292 0.0 2.0 0.00 0.00 0.00 68 1020.1
20210923073517 52 102 0.0 1.0 0.00 0.00 0.00 64 1020.0
20210923072518 53 72 0.0 0.0 0.00 0.00 0.00 63 1020.0
20210923071517 53 98 0.0 1.0 0.00 0.00 0.00 64 1019.9
20210923070518 55 87 0.0 1.0 0.00 0.00 0.00 59 1020.0
20210923065519 56 106 1.0 1.0 0.00 0.00 0.00 57 1020.0
20210923064520 56 100 0.0 1.0 0.00 0.00 0.00 57 1020.0
20210923063521 55 109 1.0 2.0 0.00 0.00 0.00 57 1020.2
20210923062521 56 67 0.0 1.0 0.00 0.00 0.00 56 1020.2
20210923061524 55 273 1.0 1.0 0.00 0.00 0.00 58 1020.2
20210923060525 56 265 0.0 1.0 0.00 0.00 0.00 57 1020.2
20210923055528 55 237 0.0 1.0 0.00 0.00 0.00 60 1020.4
20210923054529 55 234 0.0 1.0 0.00 0.00 0.00 62 1020.3
20210923053530 55 253 0.0 1.0 0.00 0.00 0.00 62 1020.3
20210923052530 55 307 0.0 1.0 0.00 0.00 0.00 64 1020.2
20210923051531 56 300 0.0 1.0 0.00 0.00 0.00 63 1020.1
20210923050518 58 341 0.0 1.0 0.00 0.00 0.00 61 1020.1
20210923045519 59 356 1.0 3.0 0.00 0.00 0.00 54 1020.0
20210923044521 58 5 2.0 6.0 0.00 0.00 0.00 46 1020.1
20210923043522 58 331 0.0 0.0 0.00 0.00 0.00 44 1019.9
20210923042521 60 273 1.0 2.0 0.00 0.00 0.00 39 1020.1
20210923041521 60 28 2.0 3.0 0.00 0.00 0.00 38 1020.1
20210923040521 61 80 2.0 3.0 0.00 0.00 0.00 39 1019.9
20210923035520 61 108 1.0 2.0 0.00 0.00 0.00 40 1019.9
20210923034523 61 111 1.0 2.0 0.00 0.00 0.00 40 1020.0
20210923033524 62 111 1.0 2.0 0.00 0.00 0.00 39 1020.1
20210923032526 62 119 1.0 2.0 0.00 0.00 0.00 39 1020.1
20210923031528 62 117 1.0 3.0 0.00 0.00 0.00 37 1020.2
20210923030531 62 123 1.0 2.0 0.00 0.00 0.00 36 1020.1
20210923025530 64 112 1.0 2.0 0.00 0.00 0.00 32 1020.3
20210923024531 65 99 2.0 3.0 0.00 0.00 0.00 31 1020.4
20210923023516 63 104 1.0 2.0 0.00 0.00 0.00 34 1020.6
20210923022531 63 87 0.0 1.0 0.00 0.00 0.00 41 1020.7
20210923021518 63 99 0.0 1.0 0.00 0.00 0.00 43 1020.7
20210923020519 65 131 1.0 1.0 0.00 0.00 0.00 35 1020.7
20210923015518 67 85 0.0 1.0 0.00 0.00 0.00 31 1020.8
20210923014521 67 151 1.0 1.0 0.00 0.00 0.00 30 1020.8
20210923013523 67 123 0.0 0.0 0.00 0.00 0.00 28 1020.9
20210923012529 68 125 0.0 0.0 0.00 0.00 0.00 28 1021.0
20210923011526 68 43 0.0 1.0 0.00 0.00 0.00 27 1021.1
20210923010528 69 51 0.0 1.0 0.00 0.00 0.00 27 1021.2
20210923005528 70 359 0.0 0.0 0.00 0.00 0.00 28 1021.3
20210923004529 71 359 0.0 0.0 0.00 0.00 0.00 25 1021.5